Startpagina
METAR-TAF:

METAR-TAF

Vliegvelden :

Córdoba, Argentinië

breedte: 31-19S, lengte: 064-13W, hoogte: 484 m

Actueel weer

Dit bericht is 56 minuten geleden gemaakt, om 13:00 UTC
Wind 11 kt uit het zuidzuidwesten, variërend tussen het zuidzuidoosten en het zuidwesten
Temperatuur 13°C
Vochtigheid 26%
Druk 1028 hPa
Zicht 10 km of meer
geen wolken onder 1500 m en geen cumulonimbus

METAR: SACO 141300Z 20011KT 150V220 CAVOK 13/M06 Q1028 NOSIG

Tijdstip: 10:56 (13:56 UTC)

Verwachting

Dit bericht is 2 uur en het 56 minuten geleden gemaakt, om 11:00 UTC
Verwachting geldig van 14 om 12 UTC tot 15 om 12 UTC
Wind 15 kt uit het zuidzuidwesten
Zicht 10 km of meer
geen wolken onder 1500 m en geen cumulonimbus
Wijzigt naar
van 14 om 21 UTC tot 15 om 00 UTC
Wind 5 kt uit het zuidzuidoosten
Zicht 10 km of meer
geen wolken onder 1500 m en geen cumulonimbus

TAF: SACO 141100Z 1412/1512 20015KT CAVOK TX18/1418Z TN05/1510Z BECMG 1421/1500 16005KT CAVOK

Waarnemingen en weersverwachtingen van meer dan 4000 vliegvelden (METAR en TAF).

De beschikbare stations zijn de gele en rode punten op de kaart.

Ga met uw muis naar het station om de naam te zien.

Klik dan om waarnemingen en weersverwachtingen te zien.

kaart wijzigen: klik op de groene knoppen met een zwart kruis om in te zoomen, op de groene knop met een streepje om uit te zoomen of op de groene pijlen voor aangrenzende kaarten.


METAR-TAF: